Time;durP1;ratioP1;P1;durP2;ratioP2;P2;SDS_P1;SDS_P2;PMS_P1;PMS_P2;Temp;Humidity;BMP_temperature;BMP_pressure;BME280_temperature;BME280_humidity;BME280_pressure;Samples;Min_cycle;Max_cycle;Signal;HPM_P1;HPM_P2
2022/05/30 00:00:16;;;;;;;5.45;1.90;;;15.20;63.70;;;;;;4989800;28;20428;-85
2022/05/30 00:02:43;;;;;;;8.55;2.13;;;15.20;63.90;;;;;;5007655;28;20037;-86
2022/05/30 00:05:11;;;;;;;5.38;2.40;;;15.20;63.90;;;;;;5008241;28;20018;-87
2022/05/30 00:07:38;;;;;;;3.70;1.73;;;15.10;63.90;;;;;;4990077;28;20034;-86
2022/05/30 00:10:06;;;;;;;6.60;2.28;;;15.10;64.00;;;;;;4976341;28;20512;-86
2022/05/30 00:12:32;;;;;;;6.35;2.50;;;15.10;64.10;;;;;;4991229;28;20053;-87
2022/05/30 00:14:58;;;;;;;3.80;2.28;;;15.10;64.10;;;;;;5002895;28;20516;-87
2022/05/30 00:17:24;;;;;;;8.02;2.55;;;15.00;64.10;;;;;;4992328;28;20044;-87
2022/05/30 00:19:50;;;;;;;5.57;2.42;;;15.00;64.20;;;;;;4992502;28;20060;-87
2022/05/30 00:22:16;;;;;;;4.47;1.80;;;15.00;64.30;;;;;;4990814;28;20497;-88
2022/05/30 00:24:43;;;;;;;4.22;2.13;;;15.00;64.30;;;;;;4969949;28;20065;-87
2022/05/30 00:27:11;;;;;;;5.25;2.20;;;15.00;64.30;;;;;;4988774;28;20177;-87
2022/05/30 00:29:38;;;;;;;3.65;1.83;;;15.00;64.30;;;;;;4987673;28;20512;-86
2022/05/30 00:32:06;;;;;;;5.55;2.05;;;15.00;64.40;;;;;;4990941;28;20046;-87
2022/05/30 00:34:33;;;;;;;4.15;2.10;;;15.00;64.50;;;;;;4988478;28;20077;-86
2022/05/30 00:37:00;;;;;;;6.03;2.00;;;14.90;64.50;;;;;;5000690;28;20068;-87
2022/05/30 00:39:26;;;;;;;3.85;1.90;;;14.90;64.60;;;;;;4990678;28;20068;-86
2022/05/30 00:42:04;;;;;;;4.72;1.95;;;14.90;64.50;;;;;;4975771;28;20397;-87
2022/05/30 00:44:30;;;;;;;5.78;1.85;;;14.90;64.60;;;;;;5006241;28;20165;-87
2022/05/30 00:46:57;;;;;;;3.03;1.60;;;14.90;64.70;;;;;;4991152;28;20038;-87
2022/05/30 00:49:23;;;;;;;5.60;1.95;;;14.90;64.70;;;;;;4989595;28;20516;-87
2022/05/30 00:51:55;;;;;;;3.83;1.83;;;14.90;64.70;;;;;;4980934;28;20034;-84
2022/05/30 00:54:32;;;;;;;4.68;2.10;;;14.90;64.70;;;;;;4988333;28;20550;-84
2022/05/30 00:57:19;;;;;;;6.60;2.22;;;14.90;64.70;;;;;;5000904;28;20564;-84
2022/05/30 00:59:55;;;;;;;6.78;2.50;;;14.90;64.70;;;;;;4986162;28;20073;-85
2022/05/30 01:02:25;;;;;;;3.20;1.85;;;14.90;64.80;;;;;;5003731;28;20049;-86
2022/05/30 01:07:38;;;;;;;5.55;1.95;;;14.80;64.80;;;;;;4988620;28;20084;-85
2022/05/30 01:10:07;;;;;;;4.10;1.83;;;14.80;64.80;;;;;;4977685;28;20476;-86
2022/05/30 01:12:39;;;;;;;2.47;1.65;;;14.80;64.80;;;;;;4974686;28;20030;-85
2022/05/30 01:15:09;;;;;;;4.88;1.90;;;14.80;64.90;;;;;;4973683;28;20034;-84
2022/05/30 01:17:57;;;;;;;3.95;2.00;;;14.90;64.90;;;;;;5001364;28;20026;-85
2022/05/30 01:20:44;;;;;;;3.50;1.88;;;14.80;64.80;;;;;;5000344;28;20049;-85
2022/05/30 01:23:24;;;;;;;5.30;2.00;;;14.80;64.90;;;;;;4952285;28;20054;-86
2022/05/30 01:26:26;;;;;;;5.80;2.15;;;14.80;65.00;;;;;;4988987;28;20448;-87
2022/05/30 01:29:32;;;;;;;3.55;2.10;;;14.90;65.00;;;;;;4987145;28;20567;-88
2022/05/30 01:31:58;;;;;;;2.70;1.70;;;14.90;65.10;;;;;;4987818;28;20050;-86
2022/05/30 01:34:27;;;;;;;5.90;1.92;;;14.90;65.00;;;;;;4988455;28;20042;-86
2022/05/30 01:36:54;;;;;;;8.38;2.00;;;15.00;65.10;;;;;;4982636;28;20030;-84
2022/05/30 01:39:24;;;;;;;5.40;2.15;;;15.00;65.00;;;;;;4993138;28;20080;-88
2022/05/30 01:41:53;;;;;;;5.72;1.95;;;15.00;64.90;;;;;;4984812;28;20041;-87
2022/05/30 01:44:19;;;;;;;6.18;2.22;;;15.00;64.90;;;;;;4986861;28;20046;-87
2022/05/30 01:46:45;;;;;;;5.13;2.33;;;15.00;64.80;;;;;;4990099;28;20034;-88
2022/05/30 01:49:11;;;;;;;4.30;2.20;;;15.00;64.70;;;;;;4996107;28;20073;-87
2022/05/30 01:51:37;;;;;;;3.55;2.08;;;15.00;64.70;;;;;;4984993;28;20440;-86
2022/05/30 01:54:06;;;;;;;7.65;2.13;;;15.00;64.60;;;;;;4989696;28;20424;-87
2022/05/30 01:56:35;;;;;;;4.28;2.20;;;15.00;64.60;;;;;;4985701;28;20473;-87
2022/05/30 01:59:02;;;;;;;3.42;1.58;;;15.00;64.60;;;;;;4966267;28;20031;-87
2022/05/30 02:01:39;;;;;;;7.03;2.10;;;15.00;64.80;;;;;;5001945;28;20041;-86
2022/05/30 02:04:06;;;;;;;5.40;2.20;;;15.00;64.70;;;;;;5001229;28;20038;-85
2022/05/30 02:06:34;;;;;;;5.63;2.03;;;15.00;64.60;;;;;;4970284;28;20409;-85
2022/05/30 02:09:00;;;;;;;5.43;2.10;;;15.00;64.60;;;;;;4983220;28;20560;-88
2022/05/30 02:11:29;;;;;;;3.97;2.00;;;15.00;64.60;;;;;;4981411;28;20043;-88
2022/05/30 02:14:12;;;;;;;4.65;1.98;;;15.00;64.70;;;;;;4965753;28;20042;-86
2022/05/30 02:19:23;;;;;;;8.68;2.30;;;15.00;64.60;;;;;;4987877;28;20432;-86
2022/05/30 02:21:50;;;;;;;7.93;2.85;;;15.10;64.60;;;;;;4991984;28;20046;-86
2022/05/30 02:24:17;;;;;;;4.57;1.88;;;15.20;64.50;;;;;;4988769;28;20030;-86
2022/05/30 02:26:44;;;;;;;3.75;1.88;;;15.30;64.40;;;;;;5004603;28;20551;-84
2022/05/30 02:29:12;;;;;;;4.00;1.83;;;15.40;64.30;;;;;;4964544;28;20038;-84
2022/05/30 02:31:50;;;;;;;5.07;1.90;;;15.50;64.10;;;;;;4997794;28;20058;-86
2022/05/30 02:37:01;;;;;;;5.55;2.10;;;15.80;63.70;;;;;;5000516;28;20120;-87
2022/05/30 02:39:28;;;;;;;2.45;1.98;;;16.00;63.50;;;;;;5000645;28;20033;-87
2022/05/30 02:42:13;;;;;;;;;;;16.10;63.20;;;;;;5001845;28;20030;-86
2022/05/30 02:44:39;;;;;;;3.25;1.83;;;16.20;62.90;;;;;;4999486;28;19972;-86
2022/05/30 02:47:06;;;;;;;5.43;2.38;;;16.30;62.70;;;;;;4970889;28;20204;-87
2022/05/30 02:49:35;;;;;;;4.30;2.03;;;16.40;62.50;;;;;;4981264;28;20415;-87
2022/05/30 02:52:02;;;;;;;4.05;2.03;;;16.60;62.40;;;;;;4980692;28;20031;-86
2022/05/30 02:54:30;;;;;;;5.38;1.80;;;16.70;62.30;;;;;;4976400;28;20034;-87
2022/05/30 02:57:14;;;;;;;5.18;2.00;;;16.70;62.20;;;;;;5002138;28;20121;-87
2022/05/30 02:59:42;;;;;;;5.88;2.25;;;16.80;62.10;;;;;;5002691;28;20094;-87
2022/05/30 03:02:08;;;;;;;4.70;2.22;;;16.80;62.20;;;;;;4994458;28;20519;-90
2022/05/30 03:04:35;;;;;;;4.40;2.10;;;16.80;62.30;;;;;;4970061;28;20065;-87
2022/05/30 03:07:05;;;;;;;3.65;2.65;;;16.80;62.60;;;;;;4961273;28;20073;-88
2022/05/30 03:09:31;;;;;;;4.40;1.98;;;16.70;62.70;;;;;;4990855;28;20512;-87
2022/05/30 03:12:12;;;;;;;5.30;2.63;;;16.70;62.70;;;;;;5010062;28;20038;-89
2022/05/30 03:14:38;;;;;;;5.45;2.45;;;16.70;62.80;;;;;;4997129;28;20117;-88
2022/05/30 03:17:05;;;;;;;4.57;2.50;;;16.60;62.90;;;;;;4991309;28;20125;-85
2022/05/30 03:19:35;;;;;;;7.53;3.08;;;16.60;62.90;;;;;;4986492;28;20066;-86
2022/05/30 03:22:01;;;;;;;5.35;2.65;;;16.60;63.10;;;;;;5003306;28;20039;-86
2022/05/30 03:24:30;;;;;;;5.05;2.40;;;16.60;63.10;;;;;;5001695;28;20045;-86
2022/05/30 03:26:58;;;;;;;5.75;2.53;;;16.70;63.10;;;;;;4972865;28;20042;-85
2022/05/30 03:29:24;;;;;;;9.20;2.85;;;16.80;63.40;;;;;;4977965;28;20033;-84
2022/05/30 03:31:50;;;;;;;5.55;2.00;;;16.90;62.50;;;;;;5010262;28;20083;-85
2022/05/30 03:34:16;;;;;;;5.28;2.17;;;17.00;62.30;;;;;;4996092;28;20133;-84
2022/05/30 03:36:42;;;;;;;8.48;2.30;;;17.20;62.10;;;;;;4999014;28;20034;-84
2022/05/30 03:39:44;;;;;;;4.45;1.80;;;17.30;61.90;;;;;;4999804;28;20038;-86
2022/05/30 03:42:36;;;;;;;4.65;1.60;;;17.50;61.60;;;;;;4992530;28;20034;-87
2022/05/30 03:45:07;;;;;;;3.28;1.20;;;17.70;61.40;;;;;;4986616;28;20043;-85
2022/05/30 03:47:42;;;;;;;4.15;1.83;;;17.80;61.20;;;;;;4984738;28;20026;-83
2022/05/30 03:50:14;;;;;;;5.57;1.50;;;17.90;61.00;;;;;;5015965;28;20046;-84
2022/05/30 03:52:43;;;;;;;2.25;1.58;;;18.10;60.90;;;;;;4986247;28;20045;-83
2022/05/30 03:55:15;;;;;;;3.20;1.23;;;18.20;60.90;;;;;;4998700;28;20026;-83
2022/05/30 03:57:43;;;;;;;3.92;1.40;;;18.30;60.70;;;;;;5010133;28;20027;-84
2022/05/30 04:00:17;;;;;;;1.65;1.38;;;18.40;60.60;;;;;;4986550;28;20091;-83
2022/05/30 04:02:47;;;;;;;3.17;1.65;;;18.50;60.50;;;;;;4987820;28;20563;-83
2022/05/30 04:05:16;;;;;;;3.95;1.20;;;18.60;60.40;;;;;;4983971;28;21447;-83
2022/05/30 04:07:42;;;;;;;1.92;1.05;;;18.70;60.30;;;;;;5004845;28;20056;-82
2022/05/30 04:10:28;;;;;;;2.35;1.33;;;18.80;60.20;;;;;;4965018;28;20099;-85
2022/05/30 04:13:23;;;;;;;1.60;1.50;;;19.00;60.10;;;;;;4934283;29;20074;-84
2022/05/30 04:16:12;;;;;;;2.22;1.02;;;19.10;60.10;;;;;;4933102;29;20035;-83
2022/05/30 04:18:39;;;;;;;1.25;0.90;;;19.20;60.10;;;;;;4918829;29;20047;-81
2022/05/30 04:21:08;;;;;;;1.40;0.90;;;19.30;60.00;;;;;;4902645;29;20040;-81
2022/05/30 04:23:34;;;;;;;3.95;1.13;;;19.40;60.00;;;;;;4915711;29;20102;-82
2022/05/30 04:26:06;;;;;;;2.92;1.45;;;19.50;60.00;;;;;;4935574;29;20062;-80
2022/05/30 04:28:34;;;;;;;3.53;0.90;;;19.60;59.90;;;;;;4917668;29;20216;-79
2022/05/30 04:31:20;;;;;;;1.90;1.20;;;19.80;59.90;;;;;;4929110;29;20039;-80
2022/05/30 04:33:46;;;;;;;3.00;0.82;;;19.90;59.80;;;;;;4924760;29;20036;-79
2022/05/30 04:36:14;;;;;;;3.63;0.80;;;20.00;59.70;;;;;;4936134;29;20545;-80
2022/05/30 04:38:45;;;;;;;2.60;1.13;;;20.10;59.70;;;;;;4934707;29;20036;-82
2022/05/30 04:41:30;;;;;;;1.23;0.73;;;20.20;59.60;;;;;;4919264;29;20479;-81
2022/05/30 04:44:14;;;;;;;1.25;0.70;;;20.40;59.60;;;;;;4936770;29;20055;-84
2022/05/30 04:46:59;;;;;;;1.48;1.00;;;20.50;59.50;;;;;;4924168;28;20549;-84
2022/05/30 04:49:26;;;;;;;1.75;0.90;;;20.60;59.30;;;;;;4937425;28;20038;-82
2022/05/30 04:51:53;;;;;;;2.42;0.88;;;20.70;59.30;;;;;;4963981;28;20031;-83
2022/05/30 04:54:20;;;;;;;2.22;0.98;;;20.80;59.20;;;;;;4946572;28;20073;-82
2022/05/30 04:57:08;;;;;;;1.92;0.75;;;20.90;59.10;;;;;;4965619;28;20035;-81
2022/05/30 04:59:42;;;;;;;3.28;1.13;;;21.00;59.00;;;;;;4961611;28;20038;-80
2022/05/30 05:02:12;;;;;;;3.30;1.00;;;21.10;59.00;;;;;;4946156;28;20142;-80
2022/05/30 05:04:39;;;;;;;1.67;1.10;;;21.20;59.00;;;;;;4944327;28;20058;-78
2022/05/30 05:07:06;;;;;;;1.63;0.85;;;21.30;59.00;;;;;;4959122;28;20112;-78
2022/05/30 05:09:55;;;;;;;1.40;0.70;;;21.40;58.80;;;;;;4979382;28;20042;-78
2022/05/30 05:12:39;;;;;;;2.45;1.00;;;21.50;58.60;;;;;;4983080;28;20257;-78
2022/05/30 05:15:23;;;;;;;3.22;0.90;;;21.60;58.40;;;;;;4981734;28;20097;-78
2022/05/30 05:17:54;;;;;;;2.97;0.90;;;21.70;58.20;;;;;;4981988;28;20063;-78
2022/05/30 05:20:23;;;;;;;2.53;1.00;;;21.80;57.90;;;;;;4972898;28;20074;-78
2022/05/30 05:22:53;;;;;;;1.00;0.88;;;21.90;57.70;;;;;;4955160;28;20126;-78
2022/05/30 05:25:39;;;;;;;3.55;1.02;;;22.00;57.60;;;;;;4997501;28;20038;-79
2022/05/30 05:28:23;;;;;;;2.75;0.88;;;22.10;57.50;;;;;;5003518;28;20042;-79
2022/05/30 05:30:49;;;;;;;4.72;1.05;;;22.20;57.40;;;;;;4989279;28;20041;-78
2022/05/30 05:33:17;;;;;;;1.80;0.93;;;22.30;57.30;;;;;;4988743;28;20046;-78
2022/05/30 05:35:47;;;;;;;5.60;3.97;;;22.30;57.20;;;;;;5001318;28;20026;-78
2022/05/30 05:38:14;;;;;;;6.63;4.50;;;22.40;57.10;;;;;;5001216;28;20026;-78
2022/05/30 05:40:55;;;;;;;7.32;4.20;;;22.50;57.20;;;;;;4987590;28;20042;-78
2022/05/30 05:43:27;;;;;;;5.68;3.15;;;22.60;57.20;;;;;;5000959;28;20439;-78
2022/05/30 05:45:53;;;;;;;4.60;2.22;;;22.80;57.10;;;;;;5005646;28;20041;-78
2022/05/30 05:48:19;;;;;;;3.65;2.00;;;22.90;56.80;;;;;;5001279;28;21123;-78
2022/05/30 05:50:45;;;;;;;6.28;1.55;;;23.00;56.60;;;;;;4987391;28;20026;-78
2022/05/30 05:53:14;;;;;;;3.35;1.58;;;23.10;56.40;;;;;;4989974;28;20042;-79
2022/05/30 05:55:43;;;;;;;5.95;2.40;;;23.20;56.20;;;;;;4985646;28;20030;-81
2022/05/30 05:58:09;;;;;;;6.68;2.40;;;23.40;56.40;;;;;;4988924;28;20048;-77
2022/05/30 06:00:36;;;;;;;6.32;1.58;;;23.70;56.10;;;;;;5005363;28;20112;-77
2022/05/30 06:03:02;;;;;;;3.85;1.77;;;24.20;54.70;;;;;;5005470;28;20535;-81
2022/05/30 06:05:48;;;;;;;3.47;1.20;;;24.40;52.80;;;;;;5002190;28;20328;-82
2022/05/30 06:08:34;;;;;;;5.85;1.23;;;24.50;52.50;;;;;;4997188;28;20206;-81
2022/05/30 06:11:21;;;;;;;2.78;1.13;;;24.50;51.50;;;;;;4984576;28;20394;-81
2022/05/30 06:13:52;;;;;;;4.00;0.90;;;24.60;51.50;;;;;;4998974;28;20455;-81
2022/05/30 06:16:21;;;;;;;2.90;0.70;;;24.50;49.20;;;;;;4986633;28;20031;-82
2022/05/30 06:18:52;;;;;;;2.03;0.70;;;24.60;49.70;;;;;;4979875;28;20065;-82
2022/05/30 06:21:20;;;;;;;2.03;0.70;;;24.50;47.30;;;;;;5000836;28;20084;-82
2022/05/30 06:23:49;;;;;;;2.22;0.65;;;24.40;48.30;;;;;;4980804;28;20038;-82
2022/05/30 06:26:44;;;;;;;0.60;0.50;;;24.40;48.80;;;;;;4980845;28;20785;-81
2022/05/30 06:29:25;;;;;;;0.63;0.60;;;24.30;47.40;;;;;;4983333;28;20046;-82
2022/05/30 06:31:52;;;;;;;4.32;1.40;;;24.30;45.90;;;;;;4980260;28;20034;-81
2022/05/30 06:34:19;;;;;;;1.40;0.80;;;24.30;47.40;;;;;;4980785;28;20516;-82
2022/05/30 06:36:45;;;;;;;1.08;0.85;;;24.30;48.10;;;;;;4973235;28;20077;-81
2022/05/30 06:39:11;;;;;;;4.70;0.60;;;24.20;47.60;;;;;;4998178;28;20508;-82
2022/05/30 06:41:41;;;;;;;2.33;0.70;;;24.20;47.10;;;;;;4971401;28;20053;-82
2022/05/30 06:44:09;;;;;;;1.08;0.77;;;24.30;47.50;;;;;;4987473;28;20138;-82
2022/05/30 06:47:08;;;;;;;1.50;0.77;;;24.30;47.50;;;;;;4963540;28;20042;-80
2022/05/30 06:49:52;;;;;;;3.70;0.90;;;24.30;47.10;;;;;;4989433;28;20575;-82
2022/05/30 06:52:23;;;;;;;1.50;0.75;;;24.30;47.60;;;;;;4982479;28;20049;-82
2022/05/30 06:54:49;;;;;;;0.82;0.60;;;24.30;47.70;;;;;;4972045;28;20667;-82
2022/05/30 07:00:02;;;;;;;3.72;0.60;;;24.30;47.60;;;;;;4985712;28;20088;-82
2022/05/30 07:02:30;;;;;;;2.15;0.75;;;24.30;47.10;;;;;;4967347;28;20527;-82
2022/05/30 07:05:14;;;;;;;2.45;0.73;;;24.30;45.00;;;;;;5004213;28;20529;-82
2022/05/30 07:07:59;;;;;;;2.70;0.85;;;24.20;46.20;;;;;;5000177;28;20061;-83
2022/05/30 07:10:54;;;;;;;3.55;1.20;;;24.20;46.10;;;;;;4991794;28;21253;-83
2022/05/30 07:13:21;;;;;;;2.60;1.15;;;24.10;43.30;;;;;;4975180;28;20038;-83
2022/05/30 07:15:50;;;;;;;2.25;1.02;;;24.10;45.20;;;;;;4964848;28;20034;-83
2022/05/30 07:18:22;;;;;;;6.43;4.77;;;24.10;45.40;;;;;;4986652;28;20049;-82
2022/05/30 07:20:59;;;;;;;4.85;3.45;;;24.00;45.70;;;;;;5004175;28;20061;-83
2022/05/30 07:23:28;;;;;;;5.00;2.58;;;24.00;45.70;;;;;;5002049;28;20026;-81
2022/05/30 07:26:22;;;;;;;3.90;1.23;;;23.90;46.30;;;;;;5000649;28;20543;-81
2022/05/30 07:28:49;;;;;;;4.32;1.50;;;23.90;45.10;;;;;;4984877;28;20038;-81
2022/05/30 07:31:33;;;;;;;2.58;1.40;;;23.90;45.70;;;;;;4996096;28;20045;-81
2022/05/30 07:34:26;;;;;;;2.53;0.93;;;23.80;46.00;;;;;;4975929;28;20058;-82
2022/05/30 07:37:11;;;;;;;6.60;1.08;;;23.70;45.20;;;;;;4976619;28;20031;-82
2022/05/30 07:39:55;;;;;;;2.40;0.95;;;23.70;45.30;;;;;;4976573;28;20035;-82
2022/05/30 07:42:33;;;;;;;4.50;0.88;;;23.70;45.20;;;;;;4968126;28;20956;-82
2022/05/30 07:45:28;;;;;;;2.15;0.98;;;23.60;45.40;;;;;;4911290;29;20127;-81
2022/05/30 07:48:15;;;;;;;2.28;1.05;;;23.50;44.70;;;;;;4926564;29;20118;-84
2022/05/30 07:51:10;;;;;;;4.00;1.15;;;23.40;44.40;;;;;;4910970;29;20035;-82
2022/05/30 07:54:12;;;;;;;1.23;1.00;;;23.40;43.30;;;;;;4874106;29;20033;-82
2022/05/30 07:57:07;;;;;;;3.13;0.90;;;23.30;42.60;;;;;;4899296;29;20138;-81
2022/05/30 07:59:37;;;;;;;5.72;1.05;;;23.00;43.00;;;;;;4911256;29;20082;-80
2022/05/30 08:02:05;;;;;;;2.47;0.68;;;23.00;42.30;;;;;;4918755;29;20058;-82
2022/05/30 08:04:31;;;;;;;1.17;0.85;;;22.90;41.50;;;;;;4895089;29;20066;-82
2022/05/30 08:06:58;;;;;;;3.03;0.90;;;22.90;42.00;;;;;;4895110;29;20070;-82
2022/05/30 08:09:42;;;;;;;16.35;9.60;;;22.90;41.60;;;;;;4910805;29;20081;-83
2022/05/30 08:12:16;;;;;;;11.27;5.35;;;22.90;44.00;;;;;;4890883;29;20039;-82
2022/05/30 08:14:58;;;;;;;5.60;2.75;;;22.90;44.80;;;;;;4926628;29;20098;-83
2022/05/30 08:17:42;;;;;;;5.82;1.95;;;22.90;45.50;;;;;;4883398;29;20024;-83
2022/05/30 08:20:13;;;;;;;2.55;1.40;;;23.00;44.70;;;;;;4930773;29;20474;-81
2022/05/30 08:22:41;;;;;;;4.78;1.50;;;23.00;44.00;;;;;;4985475;28;20034;-82
2022/05/30 08:25:14;;;;;;;5.43;2.05;;;23.00;44.80;;;;;;4982319;28;20034;-81
2022/05/30 08:27:42;;;;;;;7.50;1.80;;;23.00;45.00;;;;;;5002068;28;20365;-85
2022/05/30 08:30:10;;;;;;;8.00;1.60;;;23.00;44.40;;;;;;4984392;28;20045;-84
2022/05/30 08:32:41;;;;;;;2.55;1.23;;;22.90;43.80;;;;;;4979207;28;20030;-84
2022/05/30 08:35:26;;;;;;;3.35;1.10;;;22.90;43.90;;;;;;5003591;28;20394;-82
2022/05/30 08:37:57;;;;;;;3.70;1.30;;;22.80;43.40;;;;;;4971824;28;20038;-83
2022/05/30 08:43:52;;;;;;;3.90;1.13;;;22.80;45.80;;;;;;5013341;28;20041;-84
2022/05/30 09:05:08;;;;;;;;;;;;;;;;;;;;;
2022/05/30 09:17:43;;;;;;;5.15;1.20;;;22.20;45.50;;;;;;4748037;30;20562;-84
2022/05/30 09:26:07;;;;;;;5.13;1.48;;;22.00;44.70;;;;;;4726383;30;20102;-84
2022/05/30 09:34:00;;;;;;;2.30;1.23;;;21.90;44.90;;;;;;4844461;29;20554;-81
2022/05/30 09:36:49;;;;;;;6.20;1.50;;;21.80;46.40;;;;;;4875058;29;20052;-82
2022/05/30 09:39:44;;;;;;;3.65;2.03;;;21.70;44.50;;;;;;4874260;29;20630;-83
2022/05/30 09:42:29;;;;;;;5.07;3.40;;;21.70;45.50;;;;;;4885892;29;20064;-83
2022/05/30 09:45:11;;;;;;;3.35;2.45;;;21.60;45.90;;;;;;4855408;29;21108;-81
2022/05/30 09:48:06;;;;;;;7.30;2.53;;;21.60;47.70;;;;;;4929578;28;20531;-82
2022/05/30 09:50:58;;;;;;;3.53;1.58;;;21.70;47.50;;;;;;4927801;28;20051;-83
2022/05/30 09:53:49;;;;;;;3.90;1.48;;;21.70;46.80;;;;;;4958212;28;20561;-83
2022/05/30 09:56:19;;;;;;;3.90;1.70;;;21.70;45.40;;;;;;4945317;28;20088;-83
2022/05/30 09:59:18;;;;;;;2.27;1.77;;;21.70;46.20;;;;;;4963566;28;20038;-83
2022/05/30 10:01:54;;;;;;;3.45;1.20;;;21.70;47.20;;;;;;4979674;28;20270;-83
2022/05/30 10:04:41;;;;;;;1.67;1.30;;;21.60;47.90;;;;;;4978562;28;20034;-83
2022/05/30 10:07:16;;;;;;;2.55;1.50;;;21.70;49.30;;;;;;4966423;28;20057;-83
2022/05/30 10:10:39;;;;;;;1.73;1.10;;;21.70;49.20;;;;;;4939747;28;20149;-83
2022/05/30 10:13:09;;;;;;;4.60;1.30;;;21.70;49.20;;;;;;4925112;29;20080;-83
2022/05/30 10:15:58;;;;;;;3.83;1.38;;;21.70;48.40;;;;;;4926125;29;20067;-81
2022/05/30 10:18:38;;;;;;;2.85;1.58;;;21.70;49.10;;;;;;4912611;29;20040;-83
2022/05/30 10:21:22;;;;;;;7.22;1.60;;;21.70;48.50;;;;;;4915153;29;20032;-82
2022/05/30 10:31:18;;;;;;;5.53;2.08;;;21.60;47.20;;;;;;4965353;28;20137;-82
2022/05/30 10:34:25;;;;;;;3.92;1.63;;;21.60;47.80;;;;;;4952826;28;20034;-81
2022/05/30 10:37:06;;;;;;;2.60;1.10;;;21.60;47.10;;;;;;4967114;28;20039;-79
2022/05/30 10:40:00;;;;;;;2.75;1.02;;;21.60;45.20;;;;;;4970698;28;20557;-80
2022/05/30 10:42:28;;;;;;;2.08;1.00;;;21.50;46.20;;;;;;4968119;28;20478;-81
2022/05/30 10:45:18;;;;;;;4.80;1.42;;;21.60;45.90;;;;;;4982991;28;20047;-83
2022/05/30 10:47:48;;;;;;;3.80;1.30;;;21.60;45.80;;;;;;4977371;28;20033;-83
2022/05/30 10:50:46;;;;;;;4.90;1.20;;;21.60;47.40;;;;;;5041595;28;20045;-84
2022/05/30 10:53:54;;;;;;;7.43;1.40;;;21.60;48.00;;;;;;5041084;28;20630;-84
2022/05/30 10:56:31;;;;;;;2.58;1.40;;;21.60;48.10;;;;;;5058059;28;20507;-84
2022/05/30 10:59:22;;;;;;;2.80;1.15;;;21.60;48.30;;;;;;5056904;28;20124;-83
2022/05/30 11:02:13;;;;;;;5.07;1.48;;;21.60;46.70;;;;;;5027854;28;20136;-84
2022/05/30 11:04:54;;;;;;;2.60;1.05;;;21.60;46.00;;;;;;5027815;28;20040;-83
2022/05/30 11:07:57;;;;;;;3.58;1.15;;;21.60;45.70;;;;;;5040912;28;20098;-83
2022/05/30 11:10:50;;;;;;;3.25;1.00;;;21.60;46.20;;;;;;5038744;28;20045;-83
2022/05/30 11:13:43;;;;;;;2.03;1.17;;;21.60;45.30;;;;;;5024510;28;20136;-83
2022/05/30 11:16:59;;;;;;;2.50;1.10;;;21.60;45.00;;;;;;5007867;28;20038;-82
2022/05/30 11:19:54;;;;;;;2.22;1.08;;;21.50;45.20;;;;;;5006493;28;20169;-83
2022/05/30 11:22:42;;;;;;;5.88;1.20;;;21.50;44.20;;;;;;5010190;28;20084;-83
2022/05/30 11:25:15;;;;;;;3.85;1.35;;;21.50;44.10;;;;;;5005231;28;20088;-84
2022/05/30 11:28:09;;;;;;;1.45;0.75;;;21.50;44.80;;;;;;4989261;28;20029;-83
2022/05/30 11:31:09;;;;;;;2.85;1.20;;;21.50;44.90;;;;;;4985636;28;20046;-84
2022/05/30 11:33:52;;;;;;;3.13;1.30;;;21.50;44.90;;;;;;4959587;28;20112;-84
2022/05/30 11:36:27;;;;;;;1.88;1.10;;;21.50;47.00;;;;;;5007590;28;20639;-84
2022/05/30 11:39:05;;;;;;;3.63;1.50;;;21.50;45.90;;;;;;5004354;28;20389;-83
2022/05/30 11:41:50;;;;;;;2.13;1.20;;;21.50;47.40;;;;;;4988051;28;20037;-83
2022/05/30 11:44:51;;;;;;;4.17;1.70;;;21.50;46.60;;;;;;5000551;28;20092;-85
2022/05/30 11:47:42;;;;;;;1.55;1.10;;;21.50;45.60;;;;;;4960468;28;20058;-84
2022/05/30 11:50:29;;;;;;;3.13;1.23;;;21.50;47.30;;;;;;4970714;28;20062;-83
2022/05/30 11:53:14;;;;;;;2.15;1.13;;;21.50;45.90;;;;;;5000823;28;20038;-84
2022/05/30 11:55:59;;;;;;;4.40;1.33;;;21.50;45.30;;;;;;5046178;28;20029;-84
2022/05/30 11:58:28;;;;;;;3.60;1.30;;;21.50;45.00;;;;;;5044345;28;20485;-84
2022/05/30 12:00:56;;;;;;;3.42;1.40;;;21.40;44.30;;;;;;5042090;28;20111;-84
2022/05/30 12:03:34;;;;;;;2.40;1.33;;;21.40;44.60;;;;;;5044284;28;20091;-84
2022/05/30 12:06:11;;;;;;;3.83;1.10;;;21.40;44.50;;;;;;5048387;28;20045;-84
2022/05/30 12:08:53;;;;;;;4.05;1.30;;;21.40;45.20;;;;;;5026611;28;20037;-84
2022/05/30 12:11:37;;;;;;;1.58;1.20;;;21.40;45.20;;;;;;5044070;28;20033;-83
2022/05/30 12:14:15;;;;;;;3.28;1.27;;;21.40;44.50;;;;;;5043471;28;20033;-84
2022/05/30 12:17:15;;;;;;;2.63;1.20;;;21.40;45.90;;;;;;5047363;28;20083;-84
2022/05/30 12:25:46;;;;;;;2.45;1.40;;;21.40;44.60;;;;;;5041111;28;20037;-83
2022/05/30 12:28:28;;;;;;;3.88;1.40;;;21.40;44.40;;;;;;5044751;28;20061;-83
2022/05/30 12:31:02;;;;;;;3.00;1.23;;;21.40;45.30;;;;;;5047046;28;20398;-82
2022/05/30 12:33:28;;;;;;;2.10;1.13;;;21.40;46.20;;;;;;5058842;28;20112;-82
2022/05/30 12:36:09;;;;;;;4.03;1.17;;;21.40;45.60;;;;;;5043264;28;20492;-82
2022/05/30 12:38:55;;;;;;;1.90;1.00;;;21.40;46.00;;;;;;5059112;28;20126;-82
2022/05/30 12:41:31;;;;;;;4.95;1.30;;;21.40;44.90;;;;;;5046022;28;20053;-83
2022/05/30 12:43:58;;;;;;;4.43;1.50;;;21.40;43.90;;;;;;5068559;28;20067;-83
2022/05/30 12:46:52;;;;;;;4.15;1.02;;;21.40;43.90;;;;;;5047745;28;20037;-82
2022/05/30 12:49:31;;;;;;;5.88;1.40;;;21.40;44.60;;;;;;5062883;28;20044;-83
2022/05/30 12:52:17;;;;;;;2.63;1.25;;;21.40;43.80;;;;;;5034737;28;20033;-83
2022/05/30 12:54:58;;;;;;;1.60;0.85;;;21.40;43.60;;;;;;5059688;28;20182;-83
2022/05/30 12:57:44;;;;;;;3.85;1.20;;;21.30;43.70;;;;;;5045396;28;20415;-83
2022/05/30 13:00:21;;;;;;;3.42;0.98;;;21.30;43.40;;;;;;5042532;28;20419;-83
2022/05/30 13:02:53;;;;;;;4.38;1.20;;;21.20;43.70;;;;;;5045195;28;20031;-83
2022/05/30 13:05:38;;;;;;;5.03;1.30;;;21.30;43.60;;;;;;5066335;28;20091;-85
2022/05/30 13:08:41;;;;;;;5.13;2.60;;;21.30;43.80;;;;;;5054695;28;20499;-83
2022/05/30 13:11:10;;;;;;;3.42;1.25;;;21.30;44.20;;;;;;5045521;28;20431;-83
2022/05/30 13:13:41;;;;;;;3.92;1.05;;;21.30;44.00;;;;;;5043673;28;20036;-83
2022/05/30 13:16:17;;;;;;;3.00;1.42;;;21.30;44.10;;;;;;5054003;28;20038;-84
2022/05/30 13:18:45;;;;;;;3.45;1.50;;;21.30;43.90;;;;;;5070685;28;20043;-83
2022/05/30 13:21:12;;;;;;;3.40;1.40;;;21.30;44.00;;;;;;5049295;28;20071;-83
2022/05/30 13:23:38;;;;;;;2.42;0.95;;;21.30;44.20;;;;;;5042438;28;20210;-84
2022/05/30 13:26:11;;;;;;;3.67;1.15;;;21.30;44.60;;;;;;5041600;28;20052;-84
2022/05/30 13:28:42;;;;;;;5.75;1.13;;;21.30;44.80;;;;;;5042438;28;20581;-84
2022/05/30 13:31:11;;;;;;;2.97;1.02;;;21.30;44.00;;;;;;5057443;28;20045;-84
2022/05/30 13:33:47;;;;;;;5.97;1.52;;;21.30;43.70;;;;;;5042704;28;20684;-83
2022/05/30 13:36:20;;;;;;;1.88;1.40;;;21.30;43.20;;;;;;5044133;28;20037;-83
2022/05/30 13:38:50;;;;;;;3.42;1.20;;;21.30;43.80;;;;;;5041686;28;20033;-82
2022/05/30 13:41:24;;;;;;;6.40;1.75;;;21.30;43.60;;;;;;5042430;28;20622;-82
2022/05/30 13:43:56;;;;;;;4.22;1.60;;;21.30;43.80;;;;;;5041583;28;20485;-82
2022/05/30 13:46:29;;;;;;;2.85;1.52;;;21.30;43.90;;;;;;5032357;28;20036;-82
2022/05/30 13:48:55;;;;;;;3.05;0.90;;;21.40;43.90;;;;;;5046220;28;20118;-80
2022/05/30 13:51:38;;;;;;;3.30;0.82;;;21.40;43.80;;;;;;5045571;28;20041;-81
2022/05/30 13:54:09;;;;;;;1.75;0.88;;;21.40;43.80;;;;;;5055802;28;20040;-82
2022/05/30 13:56:45;;;;;;;1.98;1.02;;;21.30;43.80;;;;;;5046074;28;20037;-81
2022/05/30 13:59:25;;;;;;;1.50;0.80;;;21.40;44.20;;;;;;5031841;28;20544;-82
2022/05/30 14:02:00;;;;;;;5.35;1.27;;;21.30;44.00;;;;;;5042796;28;20055;-81
2022/05/30 14:04:37;;;;;;;3.33;1.10;;;21.30;44.00;;;;;;5048166;28;20041;-81
2022/05/30 14:07:04;;;;;;;1.50;1.02;;;21.30;44.10;;;;;;5015908;28;20598;-81
2022/05/30 14:09:31;;;;;;;3.85;1.10;;;21.30;43.90;;;;;;5061754;28;20114;-80
2022/05/30 14:12:01;;;;;;;3.20;1.00;;;21.30;43.80;;;;;;5043671;28;20153;-79
2022/05/30 14:14:42;;;;;;;6.35;0.95;;;21.40;43.50;;;;;;5045274;28;20067;-82
2022/05/30 14:17:11;;;;;;;1.95;0.95;;;21.40;43.00;;;;;;5039136;28;20524;-82
2022/05/30 14:19:39;;;;;;;2.33;0.80;;;21.40;43.10;;;;;;5028747;28;20067;-82
2022/05/30 14:22:20;;;;;;;1.67;1.17;;;21.30;43.00;;;;;;5028100;28;20041;-81
2022/05/30 14:24:58;;;;;;;2.58;1.20;;;21.30;43.40;;;;;;5057941;28;20036;-81
2022/05/30 14:27:27;;;;;;;5.65;1.27;;;21.30;43.30;;;;;;5042199;28;20467;-86
2022/05/30 14:29:58;;;;;;;4.55;0.90;;;21.30;44.20;;;;;;5045946;28;20036;-86
2022/05/30 14:32:36;;;;;;;2.10;0.93;;;21.30;45.70;;;;;;5040746;28;20488;-84
2022/05/30 14:35:07;;;;;;;2.47;0.80;;;21.30;47.20;;;;;;5039309;28;20040;-86
2022/05/30 14:37:39;;;;;;;4.47;1.05;;;21.30;47.60;;;;;;5012287;28;20040;-87
2022/05/30 14:40:19;;;;;;;3.95;1.08;;;21.30;48.00;;;;;;5027942;28;20033;-89